메인 페이지
METAR-TAF:

METAR-TAF

공항 :

샤울랴이 국제공항

샤울랴이, 리투아니아

위도: 55-53-38N, 경도: 023-23-42E, 고도: 135m

현재 날씨관측

예보는 51분 전, 23:20시(UTC)에 발표되었습니다.
무풍
온도 13°C
습도 94%
기압 1017 hPa
시정 10km 이상

METAR: EYSA 142320Z AUTO 00000KT 9999NDV NSC 13/12 Q1017

시각: 03:11 (00:11 UTC)

예보

예보는 1 시간 11분 전, 23:00시(UTC)에 발표되었습니다.
예보 대상 시간: 15일 00시부터 15일 09시까지 (UTC)
여러 방향의 바람 3kt
시정: 6000m
일시적
15일 00시부터 15일 03시까지 (UTC)
시정: 3000m
박무
확률 40% :
일시적
15일 00시부터 15일 03시까지 (UTC)
시정: 0500m
고도 100ft 상공
안개,

TAF: EYSA 142300Z 1500/1509 VRB03KT 6000 NSC TEMPO 1500/1503 3000 BR PROB40 TEMPO 1500/1503 0500 FG VV001

4,000개 이상의 공항 관측 자료 및 예보 (METAR 및 TAF 보고).

지도상에서 검색 가능한 기상관측소가 노란 점과 빨간 점으로 표시되어 있습니다.

기상관측소 명을 보려면 표시 위로 마우스를 이동하세요.

날씨 관측과 예보를 보려면 클릭하세요.

지도 변경 : 확대하려면 엑스 표시가 있는 녹색 버튼, 축소하려면 빼기 표시가 있는 녹색 버튼, 다음 페이지의 지도를 보려면 녹색 화살표를 클릭하세요.


METAR-TAF: